createdAt,value
2018-12-27T00:01:56.811Z,28.57
2018-12-27T00:04:26.229Z,31.43
2018-12-27T00:06:55.612Z,31.97
2018-12-27T00:09:25.080Z,32.40
2018-12-27T00:11:54.494Z,29.60
2018-12-27T00:14:23.886Z,33.00
2018-12-27T00:16:53.291Z,30.30
2018-12-27T00:19:22.869Z,33.80
2018-12-27T00:21:52.193Z,37.83
2018-12-27T00:24:21.788Z,33.57
2018-12-27T00:26:51.184Z,31.40
2018-12-27T00:29:20.567Z,31.57
2018-12-27T00:31:50.100Z,36.13
2018-12-27T00:34:19.652Z,34.10
2018-12-27T00:36:49.254Z,32.47
2018-12-27T00:39:18.788Z,34.10
2018-12-27T00:41:48.324Z,34.87
2018-12-27T00:44:17.874Z,35.00
2018-12-27T00:46:47.328Z,36.20
2018-12-27T00:49:16.763Z,35.13
2018-12-27T00:51:46.309Z,33.37
2018-12-27T00:54:16.123Z,29.80
2018-12-27T00:56:45.656Z,31.33
2018-12-27T00:59:15.241Z,34.50
2018-12-27T01:01:44.808Z,33.13
2018-12-27T01:04:14.325Z,32.67
2018-12-27T01:06:43.872Z,32.23
2018-12-27T01:09:13.403Z,31.13
2018-12-27T01:11:42.980Z,37.00
2018-12-27T01:14:12.449Z,36.07
2018-12-27T01:16:42.087Z,36.50
2018-12-27T01:19:11.668Z,33.27
2018-12-27T01:21:41.234Z,36.97
2018-12-27T01:24:10.768Z,35.00
2018-12-27T01:26:40.366Z,36.97
2018-12-27T01:29:09.890Z,31.87
2018-12-27T01:31:39.469Z,32.47
2018-12-27T01:34:09.063Z,31.50
2018-12-27T01:36:38.566Z,33.37
2018-12-27T01:39:08.121Z,31.53
2018-12-27T01:41:37.651Z,31.60
2018-12-27T01:44:07.192Z,32.47
2018-12-27T01:46:36.738Z,32.97
2018-12-27T01:49:06.315Z,34.67
2018-12-27T01:51:35.842Z,30.27
2018-12-27T01:54:05.335Z,31.50
2018-12-27T01:56:34.771Z,29.73
2018-12-27T01:59:04.249Z,31.30
2018-12-27T02:01:33.774Z,26.97
2018-12-27T02:04:03.345Z,28.43
2018-12-27T02:06:32.872Z,28.97
2018-12-27T02:09:02.404Z,30.93
2018-12-27T02:11:31.956Z,32.40
2018-12-27T02:14:01.524Z,28.37
2018-12-27T02:16:31.064Z,30.30
2018-12-27T02:19:00.645Z,31.00
2018-12-27T02:21:30.222Z,30.83
2018-12-27T02:23:59.754Z,29.87
2018-12-27T02:26:29.238Z,31.13
2018-12-27T02:28:58.782Z,28.03
2018-12-27T02:31:28.272Z,29.23
2018-12-27T02:33:57.879Z,28.23
2018-12-27T02:36:27.316Z,32.57
2018-12-27T02:38:56.831Z,27.53
2018-12-27T02:41:26.231Z,28.97
2018-12-27T02:43:55.761Z,29.57
2018-12-27T02:46:25.375Z,31.43
2018-12-27T02:48:54.912Z,27.93
2018-12-27T02:51:24.464Z,30.13
2018-12-27T02:53:53.957Z,35.47
2018-12-27T02:56:23.544Z,26.63
2018-12-27T02:58:54.804Z,28.87
2018-12-27T03:01:24.294Z,28.03
2018-12-27T03:03:53.870Z,30.13
2018-12-27T03:06:23.400Z,29.03
2018-12-27T03:08:52.934Z,28.57
2018-12-27T03:11:22.422Z,29.70
2018-12-27T03:13:51.972Z,27.80
2018-12-27T03:16:21.413Z,30.30
2018-12-27T03:18:50.916Z,27.43
2018-12-27T03:21:20.447Z,28.33
2018-12-27T03:23:50.054Z,30.57
2018-12-27T03:26:19.614Z,33.00
2018-12-27T03:28:49.240Z,29.70
2018-12-27T03:31:18.782Z,31.20
2018-12-27T03:33:52.670Z,29.60
2018-12-27T03:36:19.494Z,30.03
2018-12-27T03:38:49.053Z,29.63
2018-12-27T03:41:18.468Z,28.03
2018-12-27T03:43:48.027Z,26.93
2018-12-27T03:46:17.491Z,26.87
2018-12-27T03:48:46.921Z,26.80
2018-12-27T03:51:16.427Z,29.80
2018-12-27T03:53:45.937Z,27.20
2018-12-27T03:56:15.395Z,26.10
2018-12-27T03:58:44.874Z,30.70
2018-12-27T04:01:14.400Z,27.83
2018-12-27T04:03:43.974Z,28.30
2018-12-27T04:06:13.487Z,29.80
2018-12-27T04:08:43.026Z,30.90
2018-12-27T04:11:12.494Z,30.83
2018-12-27T04:13:42.020Z,28.33
2018-12-27T04:16:11.394Z,27.90
2018-12-27T04:18:40.803Z,30.90
2018-12-27T04:21:10.153Z,28.27
2018-12-27T04:23:40.555Z,29.67
2018-12-27T04:26:10.006Z,30.07
2018-12-27T04:28:39.457Z,27.77
2018-12-27T04:31:09.056Z,28.03
2018-12-27T04:33:38.520Z,27.43
2018-12-27T04:36:09.227Z,29.33
2018-12-27T04:38:38.586Z,26.03
2018-12-27T04:41:08.367Z,28.77
2018-12-27T04:43:38.635Z,28.13
2018-12-27T04:46:07.987Z,33.23
2018-12-27T04:48:37.392Z,28.83
2018-12-27T04:51:09.718Z,26.90
2018-12-27T04:53:39.144Z,26.40
2018-12-27T04:56:08.524Z,28.23
2018-12-27T04:58:37.916Z,29.33
2018-12-27T05:01:07.395Z,27.13
2018-12-27T05:03:36.760Z,30.90
2018-12-27T05:06:06.171Z,34.17
2018-12-27T05:08:35.504Z,28.33
2018-12-27T05:11:04.859Z,29.23
2018-12-27T05:13:34.309Z,27.77
2018-12-27T05:16:03.712Z,28.83
2018-12-27T05:18:33.085Z,31.17
2018-12-27T05:21:02.503Z,36.20
2018-12-27T05:23:31.879Z,33.63
2018-12-27T05:26:01.245Z,39.23
2018-12-27T05:28:30.625Z,33.70
2018-12-27T05:31:00.113Z,29.37
2018-12-27T05:33:29.489Z,27.63
2018-12-27T05:35:58.970Z,28.90
2018-12-27T05:38:28.453Z,25.43
2018-12-27T05:40:57.897Z,27.57
2018-12-27T05:43:27.473Z,30.63
2018-12-27T05:45:56.882Z,31.53
2018-12-27T05:48:26.316Z,48.50
2018-12-27T05:50:55.751Z,34.77
2018-12-27T05:53:25.050Z,35.90
2018-12-27T05:55:54.590Z,30.43
2018-12-27T05:58:24.048Z,32.03
2018-12-27T06:00:53.521Z,28.40
2018-12-27T06:03:22.954Z,30.00
2018-12-27T06:05:52.347Z,29.93
2018-12-27T06:08:21.744Z,28.03
2018-12-27T06:10:51.097Z,28.53
2018-12-27T06:13:20.441Z,31.43
2018-12-27T06:15:49.791Z,27.57
2018-12-27T06:18:19.302Z,28.40
2018-12-27T06:20:48.701Z,28.97
2018-12-27T06:23:18.088Z,30.23
2018-12-27T06:25:47.564Z,27.60
2018-12-27T06:28:17.038Z,28.57
2018-12-27T06:30:46.628Z,27.23
2018-12-27T06:33:16.060Z,30.33
2018-12-27T06:35:45.407Z,30.27
2018-12-27T06:38:14.840Z,27.43
2018-12-27T06:40:44.205Z,29.93
2018-12-27T06:43:13.630Z,28.47
2018-12-27T06:45:43.074Z,31.87
2018-12-27T06:48:12.573Z,28.27
2018-12-27T06:50:41.967Z,29.70
2018-12-27T06:53:11.392Z,26.90
2018-12-27T06:55:40.765Z,26.57
2018-12-27T06:58:10.183Z,27.10
2018-12-27T07:00:39.597Z,27.67
2018-12-27T07:03:08.902Z,26.83
2018-12-27T07:05:38.332Z,29.70
2018-12-27T07:08:07.707Z,26.80
2018-12-27T07:10:37.064Z,29.43
2018-12-27T07:13:06.527Z,27.03
2018-12-27T07:15:35.989Z,28.03
2018-12-27T07:18:05.403Z,31.93
2018-12-27T07:20:34.857Z,28.30
2018-12-27T07:23:04.277Z,32.40
2018-12-27T07:25:33.649Z,31.03
2018-12-27T07:28:02.991Z,31.90
2018-12-27T07:30:32.505Z,28.10
2018-12-27T07:33:01.893Z,30.87
2018-12-27T07:35:31.346Z,28.33
2018-12-27T07:38:00.770Z,30.10
2018-12-27T07:40:30.319Z,27.23
2018-12-27T07:42:59.715Z,26.97
2018-12-27T07:45:29.677Z,27.83
2018-12-27T07:47:59.071Z,27.10
2018-12-27T07:50:28.496Z,28.07
2018-12-27T07:52:57.892Z,26.10
2018-12-27T07:55:27.296Z,26.27
2018-12-27T07:57:56.663Z,28.27
2018-12-27T08:00:26.052Z,24.67
2018-12-27T08:02:55.460Z,26.90
2018-12-27T08:05:24.906Z,27.53
2018-12-27T08:07:54.306Z,27.03
2018-12-27T08:10:23.756Z,29.63
2018-12-27T08:12:53.172Z,24.93
2018-12-27T08:15:22.571Z,30.77
2018-12-27T08:17:52.027Z,25.93
2018-12-27T08:20:21.451Z,26.20
2018-12-27T08:22:50.868Z,27.33
2018-12-27T08:25:20.270Z,27.20
2018-12-27T08:27:49.671Z,25.07
2018-12-27T08:30:19.078Z,28.53
2018-12-27T08:32:48.481Z,24.50
2018-12-27T08:35:17.892Z,27.50
2018-12-27T08:37:47.286Z,26.27
2018-12-27T08:40:16.716Z,29.50
2018-12-27T08:42:46.088Z,25.83
2018-12-27T08:45:15.408Z,23.93
2018-12-27T08:47:44.794Z,27.30
2018-12-27T08:50:14.153Z,25.27
2018-12-27T08:52:43.608Z,24.87
2018-12-27T08:55:12.975Z,26.33
2018-12-27T08:57:42.385Z,27.23
2018-12-27T09:00:11.821Z,27.60
2018-12-27T09:02:41.149Z,25.37
2018-12-27T09:05:10.500Z,27.17
2018-12-27T09:07:39.912Z,24.70
2018-12-27T09:10:09.427Z,25.23
2018-12-27T09:12:38.905Z,27.67
2018-12-27T09:15:08.281Z,26.77
2018-12-27T09:17:37.669Z,29.77
2018-12-27T09:20:08.250Z,26.70
2018-12-27T09:22:37.701Z,28.63
2018-12-27T09:25:07.112Z,25.10
2018-12-27T09:27:36.408Z,29.40
2018-12-27T09:30:06.196Z,28.73
2018-12-27T09:32:35.808Z,27.50
2018-12-27T09:35:05.308Z,26.10
2018-12-27T09:37:34.702Z,27.50
2018-12-27T09:40:04.388Z,27.90
2018-12-27T09:42:33.830Z,25.27
2018-12-27T09:45:03.190Z,36.80
2018-12-27T09:47:32.608Z,30.30
2018-12-27T09:50:02.050Z,29.10
2018-12-27T09:52:31.719Z,29.63
2018-12-27T09:55:01.148Z,33.23
2018-12-27T09:57:30.625Z,32.63
2018-12-27T10:00:00.233Z,29.53
2018-12-27T10:02:29.715Z,27.70
2018-12-27T10:04:59.134Z,26.77
2018-12-27T10:07:28.728Z,24.33
2018-12-27T10:09:58.213Z,28.10
2018-12-27T10:12:27.776Z,26.37
2018-12-27T10:14:57.318Z,25.77
2018-12-27T10:17:26.788Z,25.83
2018-12-27T10:19:56.234Z,26.73
2018-12-27T10:22:25.708Z,23.87
2018-12-27T10:24:55.218Z,26.70
2018-12-27T10:27:24.513Z,27.00
2018-12-27T10:29:53.947Z,25.93
2018-12-27T10:32:23.356Z,25.30
2018-12-27T10:34:52.735Z,27.03
2018-12-27T10:37:22.204Z,24.10
2018-12-27T10:39:51.674Z,27.10
2018-12-27T10:42:21.114Z,27.77
2018-12-27T10:44:50.525Z,26.73
2018-12-27T10:47:19.923Z,25.37
2018-12-27T10:49:49.333Z,26.73
2018-12-27T10:52:18.792Z,28.07
2018-12-27T10:54:48.208Z,25.67
2018-12-27T10:57:17.591Z,28.07
2018-12-27T10:59:46.968Z,28.03
2018-12-27T11:02:16.342Z,25.97
2018-12-27T11:04:45.746Z,28.93
2018-12-27T11:07:15.123Z,25.80
2018-12-27T11:09:44.511Z,26.63
2018-12-27T11:12:13.973Z,26.43
2018-12-27T11:14:43.353Z,23.07
2018-12-27T11:17:12.783Z,22.37
2018-12-27T11:19:42.232Z,22.43
2018-12-27T11:22:11.692Z,24.60
2018-12-27T11:24:41.155Z,26.80
2018-12-27T11:27:10.481Z,25.87
2018-12-27T11:29:39.928Z,22.67
2018-12-27T11:32:09.355Z,23.87
2018-12-27T11:34:38.853Z,22.23
2018-12-27T11:37:08.343Z,23.23
2018-12-27T11:39:38.006Z,22.50
2018-12-27T11:42:07.444Z,22.63
2018-12-27T11:44:36.922Z,23.90
2018-12-27T11:47:06.453Z,23.00
2018-12-27T11:49:35.860Z,23.47
2018-12-27T11:52:05.272Z,23.13
2018-12-27T11:54:34.751Z,23.83
2018-12-27T11:57:04.055Z,27.00
2018-12-27T11:59:33.483Z,22.33
2018-12-27T12:02:02.853Z,23.30
2018-12-27T12:04:32.293Z,24.23
2018-12-27T12:07:01.726Z,21.43
2018-12-27T12:09:31.187Z,24.70
2018-12-27T12:12:00.603Z,23.03
2018-12-27T12:14:30.042Z,27.50
2018-12-27T12:16:59.537Z,23.17
2018-12-27T12:19:28.988Z,24.13
2018-12-27T12:21:58.410Z,22.77
2018-12-27T12:24:27.912Z,22.17
2018-12-27T12:26:57.328Z,22.77
2018-12-27T12:29:26.790Z,24.83
2018-12-27T12:31:57.615Z,23.00
2018-12-27T12:34:28.312Z,22.37
2018-12-27T12:36:58.974Z,23.53
2018-12-27T12:39:28.400Z,20.10
2018-12-27T12:41:57.822Z,21.60
2018-12-27T12:44:27.318Z,21.73
2018-12-27T12:46:56.738Z,24.03
2018-12-27T12:49:26.185Z,25.23
2018-12-27T12:51:55.601Z,21.97
2018-12-27T12:54:25.045Z,20.17
2018-12-27T12:56:54.581Z,22.60
2018-12-27T12:59:23.983Z,20.93
2018-12-27T13:01:53.485Z,22.57
2018-12-27T13:04:23.027Z,25.33
2018-12-27T13:06:52.492Z,24.73
2018-12-27T13:09:21.921Z,21.17
2018-12-27T13:11:51.365Z,21.93
2018-12-27T13:14:20.862Z,22.60
2018-12-27T13:16:50.272Z,23.03
2018-12-27T13:19:19.728Z,23.37
2018-12-27T13:21:49.049Z,23.37
2018-12-27T13:24:18.484Z,21.40
2018-12-27T13:26:47.905Z,27.10
2018-12-27T13:29:17.306Z,21.60
2018-12-27T13:32:04.474Z,25.77
2018-12-27T13:34:32.759Z,22.50
2018-12-27T13:37:02.215Z,20.63
2018-12-27T13:39:31.655Z,21.27
2018-12-27T13:42:01.066Z,22.53
2018-12-27T13:44:30.505Z,23.07
2018-12-27T13:46:59.965Z,20.37
2018-12-27T13:49:29.480Z,19.63
2018-12-27T13:51:58.948Z,20.70
2018-12-27T13:54:28.374Z,21.57
2018-12-27T13:56:57.838Z,20.37
2018-12-27T13:59:27.208Z,20.80
2018-12-27T14:01:56.622Z,21.80
2018-12-27T14:04:26.127Z,19.33
2018-12-27T14:06:55.563Z,20.07
2018-12-27T14:09:24.969Z,20.47
2018-12-27T14:11:54.355Z,22.97
2018-12-27T14:14:23.793Z,21.30
2018-12-27T14:16:53.275Z,22.00
2018-12-27T14:19:22.664Z,24.20
2018-12-27T14:21:52.076Z,22.57
2018-12-27T14:24:21.502Z,20.10
2018-12-27T14:26:50.901Z,18.80
2018-12-27T14:29:20.343Z,21.80
2018-12-27T14:31:49.769Z,20.10
2018-12-27T14:34:19.203Z,19.37
2018-12-27T14:36:48.594Z,21.23
2018-12-27T14:39:18.031Z,23.03
2018-12-27T14:41:47.454Z,20.70
2018-12-27T14:44:16.962Z,21.13
2018-12-27T14:46:46.320Z,20.80
2018-12-27T14:49:15.650Z,21.63
2018-12-27T14:51:45.112Z,20.43
2018-12-27T14:54:14.560Z,19.50
2018-12-27T14:56:44.004Z,22.27
2018-12-27T14:59:13.380Z,21.93
2018-12-27T15:01:42.887Z,19.23
2018-12-27T15:04:12.583Z,22.20
2018-12-27T15:06:47.180Z,20.03
2018-12-27T15:09:13.085Z,21.00
2018-12-27T15:11:42.493Z,29.60
2018-12-27T15:14:11.895Z,32.83
2018-12-27T15:16:41.269Z,30.30
2018-12-27T15:19:10.736Z,31.67
2018-12-27T15:21:40.185Z,36.57
2018-12-27T15:24:09.669Z,37.67
2018-12-27T15:26:39.113Z,32.47
2018-12-27T15:29:08.536Z,31.67
2018-12-27T15:31:38.023Z,27.40
2018-12-27T15:34:07.475Z,23.53
2018-12-27T15:36:36.906Z,25.30
2018-12-27T15:39:07.657Z,19.20
2018-12-27T15:41:37.438Z,21.37
2018-12-27T15:44:06.836Z,22.87
2018-12-27T15:46:36.255Z,21.67
2018-12-27T15:49:05.668Z,21.37
2018-12-27T15:51:35.125Z,22.37
2018-12-27T15:54:04.492Z,19.63
2018-12-27T15:56:33.817Z,21.60
2018-12-27T15:59:03.294Z,20.10
2018-12-27T16:01:32.708Z,20.10
2018-12-27T16:04:02.040Z,20.60
2018-12-27T16:06:31.507Z,22.03
2018-12-27T16:09:00.933Z,21.63
2018-12-27T16:11:30.367Z,22.03
2018-12-27T16:13:59.759Z,21.30
2018-12-27T16:16:29.125Z,20.50
2018-12-27T16:18:58.673Z,21.60
2018-12-27T16:21:29.260Z,20.97
2018-12-27T16:23:58.634Z,25.17
2018-12-27T16:26:27.955Z,21.67
2018-12-27T16:28:59.715Z,21.53
2018-12-27T16:31:29.126Z,20.60
2018-12-27T16:33:58.563Z,23.70
2018-12-27T16:36:27.946Z,22.57
2018-12-27T16:38:57.383Z,22.07
2018-12-27T16:41:26.983Z,22.57
2018-12-27T16:43:56.412Z,24.23
2018-12-27T16:46:25.789Z,24.70
2018-12-27T16:48:55.152Z,25.43
2018-12-27T16:51:24.560Z,23.80
2018-12-27T16:53:53.953Z,21.90
2018-12-27T16:56:23.516Z,23.90
2018-12-27T16:58:52.879Z,22.23
2018-12-27T17:01:22.260Z,28.60
2018-12-27T17:03:51.736Z,22.27
2018-12-27T17:06:21.076Z,21.30
2018-12-27T17:08:50.557Z,21.97
2018-12-27T17:11:20.009Z,22.10
2018-12-27T17:13:49.663Z,21.53
2018-12-27T17:16:19.111Z,19.63
2018-12-27T17:18:48.594Z,20.23
2018-12-27T17:21:18.868Z,23.97
2018-12-27T17:23:48.298Z,27.37
2018-12-27T17:26:17.718Z,23.03
2018-12-27T17:28:47.102Z,22.00
2018-12-27T17:31:16.581Z,24.37
2018-12-27T17:33:45.964Z,26.93
2018-12-27T17:36:15.417Z,23.23
2018-12-27T17:38:44.949Z,20.30
2018-12-27T17:41:14.345Z,22.93
2018-12-27T17:43:43.827Z,22.33
2018-12-27T17:46:13.281Z,21.60
2018-12-27T17:48:42.684Z,22.40
2018-12-27T17:51:12.888Z,21.63
2018-12-27T17:53:42.231Z,20.00
2018-12-27T17:56:11.794Z,21.17
2018-12-27T17:58:41.231Z,23.03
2018-12-27T18:01:10.751Z,24.87
2018-12-27T18:03:40.237Z,25.90
2018-12-27T18:06:09.799Z,25.47
2018-12-27T18:08:39.195Z,25.17
2018-12-27T18:11:08.695Z,23.57
2018-12-27T18:13:38.094Z,20.87
2018-12-27T18:16:10.042Z,22.00
2018-12-27T18:18:39.461Z,22.43
2018-12-27T18:21:08.796Z,20.83
2018-12-27T18:23:38.272Z,21.90
2018-12-27T18:26:08.601Z,20.27
2018-12-27T18:28:38.098Z,19.13
2018-12-27T18:31:08.716Z,20.93
2018-12-27T18:33:38.223Z,20.57
2018-12-27T18:36:07.662Z,18.13
2018-12-27T18:38:37.104Z,22.33
2018-12-27T18:41:06.497Z,25.23
2018-12-27T18:43:35.916Z,21.63
2018-12-27T18:46:05.378Z,24.97
2018-12-27T18:48:34.772Z,20.43
2018-12-27T18:51:04.218Z,21.37
2018-12-27T18:53:33.645Z,22.33
2018-12-27T18:56:02.998Z,21.17
2018-12-27T18:58:32.421Z,21.87
2018-12-27T19:01:01.840Z,23.20
2018-12-27T19:03:31.243Z,21.27
2018-12-27T19:06:00.624Z,25.07
2018-12-27T19:08:30.042Z,27.47
2018-12-27T19:11:35.581Z,24.20
2018-12-27T19:14:05.100Z,22.80
2018-12-27T19:16:34.564Z,23.87
2018-12-27T19:19:04.153Z,25.63
2018-12-27T19:22:11.466Z,25.20
2018-12-27T19:24:40.899Z,28.10
2018-12-27T19:27:10.284Z,27.37
2018-12-27T19:29:39.719Z,23.53
2018-12-27T19:32:09.103Z,25.30
2018-12-27T19:34:38.609Z,25.17
2018-12-27T19:37:08.015Z,25.27
2018-12-27T19:39:39.093Z,23.90
2018-12-27T19:42:08.700Z,26.47
2018-12-27T19:44:38.293Z,27.77
2018-12-27T19:47:07.768Z,26.30
2018-12-27T19:49:37.148Z,24.70
2018-12-27T19:52:06.606Z,26.53
2018-12-27T19:54:36.021Z,26.77
2018-12-27T19:57:05.450Z,28.70
2018-12-27T19:59:34.911Z,28.40
2018-12-27T20:02:04.306Z,30.60
2018-12-27T20:04:33.710Z,29.97
2018-12-27T20:07:03.102Z,31.77
2018-12-27T20:09:32.553Z,29.87
2018-12-27T20:12:01.897Z,29.87
2018-12-27T20:14:31.321Z,28.10
2018-12-27T20:17:00.805Z,24.57
2018-12-27T20:19:30.213Z,26.43
2018-12-27T20:21:59.661Z,26.30
2018-12-27T20:24:29.116Z,30.43
2018-12-27T20:26:58.553Z,27.10
2018-12-27T20:29:28.027Z,27.17
2018-12-27T20:31:57.540Z,25.23
2018-12-27T20:34:26.948Z,26.87
2018-12-27T20:36:56.365Z,28.33
2018-12-27T20:39:25.774Z,24.50
2018-12-27T20:41:55.193Z,27.03
2018-12-27T20:44:24.674Z,25.37
2018-12-27T20:46:54.228Z,25.40
2018-12-27T20:49:23.822Z,25.20
2018-12-27T20:51:53.299Z,25.47
2018-12-27T20:54:22.689Z,27.67
2018-12-27T20:56:52.114Z,28.27
2018-12-27T20:59:21.474Z,31.30
2018-12-27T21:01:50.859Z,26.93
2018-12-27T21:04:20.181Z,29.57
2018-12-27T21:06:49.675Z,28.67
2018-12-27T21:09:19.095Z,32.17
2018-12-27T21:11:48.497Z,28.93
2018-12-27T21:14:17.983Z,32.20
2018-12-27T21:16:47.398Z,29.13
2018-12-27T21:19:16.824Z,29.07
2018-12-27T21:21:46.214Z,35.20
2018-12-27T21:24:15.666Z,34.23
2018-12-27T21:26:45.100Z,36.40
2018-12-27T21:29:14.580Z,34.83
2018-12-27T21:31:43.971Z,36.03
2018-12-27T21:34:13.353Z,33.00
2018-12-27T21:36:42.887Z,34.03
2018-12-27T21:39:12.357Z,33.30
2018-12-27T21:41:43.548Z,31.40
2018-12-27T21:44:13.000Z,29.53
2018-12-27T21:46:42.385Z,27.23
2018-12-27T21:49:11.849Z,31.60
2018-12-27T21:51:41.257Z,26.27
2018-12-27T21:54:10.629Z,28.10
2018-12-27T21:56:40.067Z,29.17
2018-12-27T21:59:09.458Z,27.30
2018-12-27T22:01:38.862Z,26.57
2018-12-27T22:04:08.276Z,27.93
2018-12-27T22:06:37.701Z,28.70
2018-12-27T22:09:07.913Z,29.60
2018-12-27T22:11:37.398Z,27.10
2018-12-27T22:14:06.888Z,28.63
2018-12-27T22:16:36.294Z,27.27
2018-12-27T22:19:05.701Z,30.07
2018-12-27T22:21:35.046Z,26.17
2018-12-27T22:24:04.512Z,27.20
2018-12-27T22:26:33.957Z,29.80
2018-12-27T22:29:03.448Z,29.30
2018-12-27T22:31:32.945Z,31.47
2018-12-27T22:34:02.377Z,28.13
2018-12-27T22:36:31.771Z,30.23
2018-12-27T22:39:01.207Z,29.03
2018-12-27T22:41:30.619Z,27.90
2018-12-27T22:44:00.130Z,26.90
2018-12-27T22:46:29.586Z,26.73
2018-12-27T22:48:59.020Z,27.43
2018-12-27T22:51:28.790Z,29.47
2018-12-27T22:53:58.214Z,28.90
2018-12-27T22:56:27.684Z,29.90
2018-12-27T22:58:57.122Z,27.53
2018-12-27T23:01:26.510Z,28.57
2018-12-27T23:03:55.978Z,27.17
2018-12-27T23:06:25.257Z,27.43
2018-12-27T23:08:54.675Z,25.43
2018-12-27T23:11:24.085Z,31.57
2018-12-27T23:13:53.511Z,29.30
2018-12-27T23:16:22.881Z,28.40
2018-12-27T23:18:52.263Z,29.03
2018-12-27T23:21:21.668Z,28.63
2018-12-27T23:23:51.200Z,34.33
2018-12-27T23:26:20.476Z,25.87
2018-12-27T23:28:49.862Z,32.03
2018-12-27T23:31:19.356Z,29.37
2018-12-27T23:33:48.755Z,26.87
2018-12-27T23:36:18.106Z,29.77
2018-12-27T23:38:50.358Z,29.37
2018-12-27T23:41:18.646Z,28.77
2018-12-27T23:43:48.048Z,29.43
2018-12-27T23:46:17.512Z,32.17
2018-12-27T23:48:46.938Z,33.30
2018-12-27T23:51:16.358Z,28.70
2018-12-27T23:53:45.674Z,29.80
2018-12-27T23:56:15.014Z,30.73
2018-12-27T23:58:44.413Z,29.07
